Flight Track Log - Related Links

Times and Time Zones

All times are in EDT time to prevent confusion due to time zone crossing. See the FLG4099 flight status page for this flight to view local times or setup timezone preferences in your user account.

Time Position Orientation Groundspeed Altitude Reporting Facility
EDT Latitude Longitude Course Direction KTS MPH feet Rate Location/Type
Wed 06:10:51 AM 44.4125 -73.2828 259° West 237 273 6,400  Level Boston Center
Wed 06:11:00 AM 44.3661 -73.7040 259° West  Level FlightAware Approximate
Wed 06:11:51 AM 44.3947 -73.4017 258° West 280 322 10,000  Level Boston Center
Wed 06:12:00 AM 44.3461 -73.8443 259° West  Level FlightAware Approximate
Wed 06:12:51 AM 44.3772 -73.5147 258° West 299 344 12,000  Level Boston Center
Wed 06:13:00 AM 44.3241 -73.9839 256° West  Level FlightAware Approximate
Wed 06:13:51 AM 44.3550 -73.6478 257° West 332 382 13,400  Level Boston Center
Wed 06:14:00 AM 44.2986 -74.1224 256° West  Level FlightAware Approximate
Wed 06:14:51 AM 44.3347 -73.7867 259° West 366 421 15,600  Level Boston Center
Wed 06:15:00 AM 44.2729 -74.2607 256° West  Level FlightAware Approximate
Wed 06:15:51 AM 44.3122 -73.9283 258° West 372 428 17,500  Level Boston Center
Wed 06:16:00 AM 44.2477 -74.3991 259° West  Level FlightAware Approximate
Wed 06:16:51 AM 44.2872 -74.0728 256° West 377 434 18,900  Level Boston Center
Wed 06:17:51 AM 44.2664 -74.2172 259° West 377 434 20,300 1,400 Climbing Boston Center
Wed 06:18:51 AM 44.2411 -74.3700 257° West 393 452 21,700 1,200 Climbing Boston Center
Wed 06:19:51 AM 44.2175 -74.5228 258° West 400 460 22,700 1,000 Climbing Boston Center
Wed 06:20:51 AM 44.1917 -74.6753 257° West 412 474 23,700 1,000 Climbing Boston Center
Wed 06:21:51 AM 44.1656 -74.8336 257° West 412 474 24,700 1,000 Climbing Boston Center
Wed 06:22:51 AM 44.1392 -74.9917 257° West 417 480 25,700 1,000 Climbing Boston Center
Wed 06:23:51 AM 44.1128 -75.1497 257° West 417 480 26,700 1,000 Climbing Boston Center
Wed 06:24:51 AM 44.0858 -75.3133 257° West 424 488 27,700 950 Climbing Boston Center
Wed 06:25:51 AM 44.0589 -75.4681 256° West 429 494 28,600 700 Climbing Boston Center
Wed 06:26:51 AM 44.0317 -75.6311 257° West 429 494 29,100 500 Climbing Boston Center
Wed 06:27:51 AM 44.0017 -75.8000 256° West 429 494 29,600 450 Climbing Boston Center
Wed 06:28:51 AM 43.9739 -75.9628 257° West 435 501 30,000 200 Climbing Boston Center
Wed 06:29:51 AM 43.9539 -76.1378 261° West 446 513 30,000  Level Boston Center
Wed 06:30:51 AM 43.9478 -76.3192 267° West 464 534 30,000  Level Boston Center
Wed 06:31:51 AM 43.9436 -76.5006 268° West 469 540 30,000  Level Boston Center
Wed 06:32:48 AM 43.9167 -76.6500 256° West 480 552 30,000  Level Toronto Center
Wed 06:33:48 AM 43.9167 -76.8333 270° West 480 552 30,000  Level Toronto Center
Wed 06:34:48 AM 43.9167 -77.0167 270° West 480 552 30,000  Level Toronto Center
Wed 06:35:48 AM 43.9000 -77.2000 263° West 480 552 30,000  Level Toronto Center
Wed 06:36:48 AM 43.9167 -77.3833 277° West 490 564 30,000  Level Toronto Center
Wed 06:37:48 AM 43.9000 -77.5667 263° West 490 564 30,000  Level Toronto Center
Wed 06:38:48 AM 43.8833 -77.7833 264° West 490 564 30,000  Level Toronto Center
Wed 06:39:48 AM 43.8833 -77.9667 270° West 490 564 30,000  Level Toronto Center
Wed 06:40:48 AM 43.8667 -78.1333 262° West 490 564 30,000  Level Toronto Center
Wed 06:41:48 AM 43.8667 -78.3333 270° West 490 564 30,000  Level Toronto Center
Wed 06:42:48 AM 43.8667 -78.5167 270° West 490 564 30,000  Level Toronto Center
Wed 06:43:48 AM 43.8333 -78.7167 257° West 480 552 30,000  Level Toronto Center
Wed 06:44:48 AM 43.7500 -78.8500 229° Southwest 480 552 30,000  Level Toronto Center
Wed 06:45:48 AM 43.6833 -79.0167 241° Southwest 480 552 30,000  Level Toronto Center
Wed 06:46:48 AM 43.6000 -79.1500 229° Southwest 480 552 30,000  Level Toronto Center
Wed 06:47:48 AM 43.5333 -79.2833 235° Southwest 470 541 30,000  Level Toronto Center
Wed 06:48:48 AM 43.4500 -79.4500 235° Southwest 480 552 30,000  Level Toronto Center
Wed 06:49:48 AM 43.3667 -79.5833 229° Southwest 480 552 30,000  Level Toronto Center
Wed 06:50:48 AM 43.3000 -79.7500 241° Southwest 480 552 30,000  Level Toronto Center
Wed 06:51:48 AM 43.2167 -79.8833 229° Southwest 470 541 30,000 -300 Level Toronto Center
Wed 06:52:48 AM 43.1333 -80.0500 236° Southwest 480 552 29,400 -1,150 Descending Toronto Center
Wed 06:53:48 AM 43.0667 -80.1833 236° Southwest 470 541 27,700 -1,700 Descending Toronto Center
Wed 06:54:48 AM 43.0000 -80.3167 236° Southwest 460 529 26,000 -1,700 Descending Toronto Center
Wed 06:55:48 AM 42.9167 -80.4833 236° Southwest 460 529 24,300 -1,176 Descending Toronto Center
Wed 06:57:21 AM 42.8125 -80.6908 236° Southwest 457 526 23,000 -510 Descending Cleveland Center
Wed 06:58:21 AM 42.7475 -80.8150 235° Southwest 426 490 23,000 -250 Level Cleveland Center
Wed 06:59:21 AM 42.6889 -80.9392 237° Southwest 400 460 22,500 -750 Descending Cleveland Center
Wed 07:00:21 AM 42.6342 -81.0631 239° Southwest 394 453 21,500 -1,050 Descending Cleveland Center
Wed 07:01:21 AM 42.5794 -81.1922 240° Southwest 389 448 20,400 -900 Descending Cleveland Center
Wed 07:02:21 AM 42.5767 -81.3106 268° West 362 417 19,700 -700 Descending Cleveland Center
Wed 07:03:21 AM 42.6239 -81.4325 298° West 354 407 19,000 -350 Descending Cleveland Center
Wed 07:04:21 AM 42.6625 -81.5600 292° West 367 422 19,000  Level Cleveland Center
Wed 07:05:21 AM 42.6425 -81.6981 259° West 360 414 19,000  Level Cleveland Center
Wed 07:06:21 AM 42.6181 -81.8444 257° West 365 420 19,000  Level Cleveland Center
Wed 07:07:21 AM 42.5978 -81.9767 258° West 365 420 19,000 -450 Level Cleveland Center
Wed 07:08:21 AM 42.5772 -82.1114 258° West 370 426 18,100 -1,350 Descending Cleveland Center
Wed 07:09:21 AM 42.5567 -82.2406 258° West 370 426 16,300 -1,846 Descending Cleveland Center
Wed 07:09:52 AM 42.5453 -82.3078 257° West 347 399 15,300 -1,900 Descending Cleveland Center
Wed 07:10:21 AM 42.5358 -82.3697 258° West 370 426 14,400 -1,888 Descending Cleveland Center
Wed 07:11:21 AM 42.5172 -82.4903 258° West 354 407 12,500 -1,200 Descending Cleveland Center
Wed 07:12:21 AM 42.4842 -82.6075 249° West 337 388 12,000 -305 Descending Cleveland Center
Wed 07:13:19 AM 42.4486 -82.7189 247° West 329 379 11,900 -454 Descending Cleveland Center
Wed 07:14:20 AM 42.4092 -82.8300 244° Southwest 326 375 11,100 -443 Descending Cleveland Center
Wed 07:15:21 AM 42.3672 -82.9353 242° Southwest 323 372 11,000 -50 Descending Cleveland Center
Wed 07:16:21 AM 42.3275 -83.0464 244° Southwest 332 382 11,000  Level Cleveland Center
Wed 07:17:21 AM 42.2964 -83.1350 245° Southwest 302 348 11,000  Level Cleveland Center
Wed 07:18:21 AM 42.2550 -83.2092 233° Southwest 272 313 11,000 -350 Level Cleveland Center
Wed 07:19:21 AM 42.1897 -83.2428 201° Southwest 247 284 10,300 -1,344 Descending Cleveland Center
Wed 07:20:26 AM 42.1200 -83.2819 203° Southwest 248 285 8,200 -1,950 Descending Cleveland Center
Wed 07:21:21 AM 42.0650 -83.3158 205° Southwest 242 278 6,400 -1,707 Descending Cleveland Center
Wed 07:22:22 AM 42.0136 -83.3667 216° Southwest 246 283 4,900 -1,180 Descending Cleveland Center
Wed 07:23:23 AM 42.0203 -83.4425 277° West 181 208 4,000 -836 Descending Cleveland Center
Wed 07:24:24 AM 42.0703 -83.4419 360° North 175 201 3,200 -689 Descending Cleveland Center
Wed 07:25:25 AM 42.1106 -83.4158 26° Northeast 135 155 2,600 -590 Descending Cleveland Center

Login

Don't have an account? Register now (free) for customized features, flight alerts, and more!